Time;durP1;ratioP1;P1;durP2;ratioP2;P2;SDS_P1;SDS_P2;PMS_P1;PMS_P2;Temp;Humidity;BMP_temperature;BMP_pressure;BME280_temperature;BME280_humidity;BME280_pressure;Samples;Min_cycle;Max_cycle;Signal;HPM_P1;HPM_P2
2022/05/16 00:00:19;;;;;;;10.90;3.85;;;;;;;;;;4969596;28;20046;-61
2022/05/16 00:02:45;;;;;;;13.00;3.85;;;;;;;;;;4969450;28;20046;-61
2022/05/16 00:05:12;;;;;;;11.00;3.03;;;;;;;;;;4969639;28;20039;-61
2022/05/16 00:07:38;;;;;;;8.68;3.50;;;;;;;;;;4982803;28;20047;-61
2022/05/16 00:10:05;;;;;;;11.35;3.63;;;;;;;;;;4987425;28;20120;-61
2022/05/16 00:12:31;;;;;;;9.63;3.95;;;;;;;;;;4985494;28;20489;-61
2022/05/16 00:14:57;;;;;;;10.63;3.47;;;;;;;;;;4987687;28;20874;-61
2022/05/16 00:17:24;;;;;;;14.88;3.20;;;;;;;;;;4973962;28;20042;-61
2022/05/16 00:19:50;;;;;;;12.27;3.58;;;;;;;;;;4969349;28;20046;-61
2022/05/16 00:22:16;;;;;;;6.75;3.38;;;;;;;;;;4969125;28;20047;-61
2022/05/16 00:24:43;;;;;;;14.15;3.40;;;;;;;;;;4969211;28;20039;-61
2022/05/16 00:27:09;;;;;;;10.20;3.60;;;;;;;;;;4967756;28;20046;-62
2022/05/16 00:29:36;;;;;;;9.07;2.80;;;;;;;;;;4968601;28;20043;-61
2022/05/16 00:32:02;;;;;;;9.45;3.20;;;;;;;;;;4985426;28;20078;-61
2022/05/16 00:34:28;;;;;;;9.25;3.75;;;;;;;;;;4987344;28;20038;-61
2022/05/16 00:36:55;;;;;;;7.68;3.00;;;;;;;;;;4973316;28;20377;-61
2022/05/16 00:39:21;;;;;;;9.63;3.08;;;;;;;;;;4977486;28;20180;-61
2022/05/16 00:41:49;;;;;;;10.10;4.13;;;;;;;;;;4971226;28;20043;-61
2022/05/16 00:44:15;;;;;;;11.57;3.40;;;;;;;;;;4968410;28;20515;-61
2022/05/16 00:46:42;;;;;;;7.78;3.42;;;;;;;;;;4981764;28;20049;-61
2022/05/16 00:49:11;;;;;;;9.30;3.30;;;;;;;;;;4987072;28;20039;-62
2022/05/16 00:51:42;;;;;;;9.20;3.25;;;;;;;;;;4986828;28;20145;-61
2022/05/16 00:54:17;;;;;;;7.47;2.80;;;;;;;;;;4987219;28;20117;-61
2022/05/16 00:56:44;;;;;;;12.73;3.70;;;;;;;;;;4971933;28;20091;-61
2022/05/16 00:59:10;;;;;;;11.20;3.40;;;;;;;;;;4968771;28;20069;-61
2022/05/16 01:04:55;;;;;;;11.93;3.15;;;;;;;;;;4990918;23;20105;-56
2022/05/16 01:07:12;;;;;;;10.23;3.15;;;;;;;;;;4948445;28;20051;-56
2022/05/16 01:09:38;;;;;;;13.55;3.60;;;;;;;;;;4948916;28;20043;-57
2022/05/16 01:12:04;;;;;;;12.15;3.05;;;;;;;;;;4956075;28;20038;-57
2022/05/16 01:14:38;;;;;;;12.00;3.58;;;;;;;;;;4966709;28;20043;-56
2022/05/16 01:17:05;;;;;;;10.95;3.10;;;;;;;;;;4968203;28;20043;-56
2022/05/16 01:19:31;;;;;;;9.35;3.10;;;;;;;;;;4967102;28;20194;-56
2022/05/16 01:21:59;;;;;;;9.10;3.22;;;;;;;;;;4964476;28;20603;-56
2022/05/16 01:24:26;;;;;;;6.13;3.15;;;;;;;;;;4962685;28;20638;-56
2022/05/16 01:26:52;;;;;;;10.15;3.80;;;;;;;;;;4948483;28;20043;-57
2022/05/16 01:29:20;;;;;;;13.68;3.40;;;;;;;;;;4948549;28;20118;-56
2022/05/16 01:31:46;;;;;;;6.93;2.87;;;;;;;;;;4964115;28;20046;-57
2022/05/16 01:34:13;;;;;;;7.45;3.53;;;;;;;;;;4964834;28;20044;-56
2022/05/16 01:36:39;;;;;;;8.10;3.20;;;;;;;;;;4967120;28;20045;-57
2022/05/16 01:39:05;;;;;;;8.38;3.25;;;;;;;;;;4966858;28;20452;-57
2022/05/16 01:41:31;;;;;;;7.70;3.40;;;;;;;;;;4966233;28;20141;-57
2022/05/16 01:44:00;;;;;;;9.65;3.22;;;;;;;;;;4962387;28;20035;-56
2022/05/16 01:46:28;;;;;;;6.85;3.58;;;;;;;;;;4966545;28;20054;-56
2022/05/16 01:48:54;;;;;;;9.13;3.60;;;;;;;;;;4966835;28;20050;-56
2022/05/16 01:51:21;;;;;;;11.95;3.22;;;;;;;;;;4966258;28;20047;-56
2022/05/16 01:53:47;;;;;;;8.38;3.28;;;;;;;;;;4965708;28;20127;-57
2022/05/16 01:56:13;;;;;;;10.82;3.38;;;;;;;;;;4947668;28;20532;-57
2022/05/16 01:58:41;;;;;;;8.70;3.03;;;;;;;;;;4948625;28;20643;-56
2022/05/16 02:01:08;;;;;;;11.60;3.50;;;;;;;;;;4948108;28;20082;-56
2022/05/16 02:03:34;;;;;;;8.52;2.88;;;;;;;;;;4947353;28;20109;-56
2022/05/16 02:06:00;;;;;;;7.85;3.03;;;;;;;;;;4966920;28;20050;-56
2022/05/16 02:08:27;;;;;;;10.82;3.50;;;;;;;;;;4965896;28;20121;-57
2022/05/16 02:10:53;;;;;;;7.93;3.13;;;;;;;;;;4965302;28;20050;-56
2022/05/16 02:13:19;;;;;;;8.18;3.17;;;;;;;;;;4948097;28;20038;-56
2022/05/16 02:15:46;;;;;;;10.95;2.65;;;;;;;;;;4964989;28;20113;-56
2022/05/16 02:18:12;;;;;;;10.23;3.38;;;;;;;;;;4964595;28;20085;-56
2022/05/16 02:20:39;;;;;;;10.23;3.25;;;;;;;;;;4961335;28;20050;-56
2022/05/16 02:25:51;;;;;;;13.55;3.58;;;;;;;;;;4947263;28;20054;-56
2022/05/16 02:28:18;;;;;;;5.78;2.88;;;;;;;;;;4947489;28;20114;-56
2022/05/16 02:30:45;;;;;;;8.82;3.15;;;;;;;;;;4954356;28;20034;-57
2022/05/16 02:33:12;;;;;;;7.35;2.95;;;;;;;;;;4963792;28;20038;-57
2022/05/16 02:35:38;;;;;;;8.43;2.55;;;;;;;;;;4947604;28;20136;-57
2022/05/16 02:38:05;;;;;;;8.18;3.13;;;;;;;;;;4947956;28;20043;-56
2022/05/16 02:40:33;;;;;;;8.45;2.97;;;;;;;;;;4948363;28;20054;-56
2022/05/16 02:42:59;;;;;;;10.18;3.15;;;;;;;;;;4948429;28;20114;-57
2022/05/16 02:45:28;;;;;;;10.20;3.25;;;;;;;;;;4965364;28;20046;-56
2022/05/16 02:47:55;;;;;;;11.27;3.28;;;;;;;;;;4962617;28;20040;-57
2022/05/16 02:50:23;;;;;;;5.75;2.90;;;;;;;;;;4964675;28;20034;-56
2022/05/16 02:52:51;;;;;;;6.57;2.97;;;;;;;;;;4963957;28;20049;-56
2022/05/16 02:55:17;;;;;;;9.63;3.30;;;;;;;;;;4947341;28;20031;-56
2022/05/16 02:57:43;;;;;;;10.57;3.13;;;;;;;;;;4946994;28;20082;-56
2022/05/16 03:00:10;;;;;;;8.50;2.92;;;;;;;;;;4948496;28;20757;-57
2022/05/16 03:02:37;;;;;;;8.88;3.28;;;;;;;;;;4948608;28;20489;-56
2022/05/16 03:05:04;;;;;;;10.27;3.38;;;;;;;;;;4965544;28;20189;-56
2022/05/16 03:07:30;;;;;;;73.95;6.10;;;;;;;;;;4965210;28;20085;-57
2022/05/16 03:09:56;;;;;;;11.68;3.17;;;;;;;;;;4965136;28;20130;-56
2022/05/16 03:12:22;;;;;;;6.82;3.08;;;;;;;;;;4962731;28;20038;-56
2022/05/16 03:14:48;;;;;;;11.63;3.00;;;;;;;;;;4947228;28;20098;-56
2022/05/16 03:17:14;;;;;;;6.80;3.60;;;;;;;;;;4947171;28;20180;-56
2022/05/16 03:19:40;;;;;;;7.78;3.20;;;;;;;;;;4956547;28;20162;-57
2022/05/16 03:22:06;;;;;;;8.82;2.92;;;;;;;;;;4964375;28;20039;-57
2022/05/16 03:24:33;;;;;;;8.23;2.42;;;;;;;;;;4946933;28;20079;-56
2022/05/16 03:27:00;;;;;;;6.28;3.00;;;;;;;;;;4946496;28;20114;-56
2022/05/16 03:29:27;;;;;;;10.82;3.13;;;;;;;;;;4950862;28;20036;-56
2022/05/16 03:31:54;;;;;;;7.30;2.80;;;;;;;;;;4968763;28;20042;-56
2022/05/16 03:34:20;;;;;;;11.55;3.38;;;;;;;;;;4953197;28;20043;-56
2022/05/16 03:36:46;;;;;;;12.82;2.80;;;;;;;;;;4953416;28;20057;-56
2022/05/16 03:41:58;;;;;;;9.88;2.88;;;;;;;;;;4968793;28;20054;-57
2022/05/16 03:44:24;;;;;;;5.43;2.50;;;;;;;;;;4953014;28;20280;-56
2022/05/16 03:46:51;;;;;;;7.55;2.60;;;;;;;;;;4953693;28;20043;-56
2022/05/16 03:49:18;;;;;;;10.07;3.15;;;;;;;;;;4952999;28;20036;-56
2022/05/16 03:51:44;;;;;;;9.82;2.88;;;;;;;;;;4959862;28;20058;-56
2022/05/16 03:54:10;;;;;;;9.82;3.05;;;;;;;;;;4952853;28;20075;-57
2022/05/16 03:56:37;;;;;;;11.88;2.88;;;;;;;;;;4959207;28;20069;-57
2022/05/16 03:59:03;;;;;;;7.07;2.00;;;;;;;;;;4971516;28;20030;-57
2022/05/16 04:01:29;;;;;;;6.15;2.60;;;;;;;;;;4967934;28;20054;-56
2022/05/16 04:03:56;;;;;;;9.23;2.88;;;;;;;;;;4952907;28;20055;-56
2022/05/16 04:06:22;;;;;;;8.20;2.80;;;;;;;;;;4963779;28;20130;-56
2022/05/16 04:08:48;;;;;;;10.27;2.92;;;;;;;;;;4971288;28;20043;-56
2022/05/16 04:11:16;;;;;;;4.68;2.50;;;;;;;;;;4968959;28;20043;-56
2022/05/16 04:13:43;;;;;;;6.75;2.88;;;;;;;;;;4953315;28;20094;-56
2022/05/16 04:16:09;;;;;;;7.78;2.60;;;;;;;;;;4963363;28;20038;-56
2022/05/16 04:18:36;;;;;;;8.52;2.55;;;;;;;;;;4971118;28;20183;-57
2022/05/16 04:21:03;;;;;;;8.55;2.50;;;;;;;;;;4970015;28;20046;-56
2022/05/16 04:23:29;;;;;;;7.03;2.58;;;;;;;;;;4952654;28;20032;-56
2022/05/16 04:25:55;;;;;;;9.23;2.72;;;;;;;;;;4952386;28;20051;-56
2022/05/16 04:28:22;;;;;;;7.63;2.38;;;;;;;;;;4952804;28;20035;-56
2022/05/16 04:30:48;;;;;;;7.65;2.13;;;;;;;;;;4953803;28;20097;-56
2022/05/16 04:33:14;;;;;;;6.47;2.17;;;;;;;;;;4966302;28;20054;-57
2022/05/16 04:35:40;;;;;;;6.10;2.13;;;;;;;;;;4970723;28;20039;-55
2022/05/16 04:38:07;;;;;;;7.03;2.50;;;;;;;;;;4970767;28;20117;-57
2022/05/16 04:40:33;;;;;;;7.22;2.30;;;;;;;;;;4963184;28;20079;-57
2022/05/16 04:42:59;;;;;;;7.18;2.97;;;;;;;;;;4967273;28;20051;-56
2022/05/16 04:45:27;;;;;;;9.00;3.33;;;;;;;;;;4964261;28;20047;-56
2022/05/16 04:47:55;;;;;;;5.53;2.60;;;;;;;;;;4963108;28;20562;-56
2022/05/16 04:50:25;;;;;;;6.85;2.45;;;;;;;;;;4959594;28;20039;-57
2022/05/16 04:52:51;;;;;;;8.60;2.83;;;;;;;;;;4950717;28;20047;-56
2022/05/16 04:55:17;;;;;;;9.73;2.63;;;;;;;;;;4948983;28;20058;-56
2022/05/16 04:57:43;;;;;;;8.00;2.17;;;;;;;;;;4955065;28;20439;-56
2022/05/16 05:00:11;;;;;;;8.52;3.15;;;;;;;;;;4963870;28;20077;-56
2022/05/16 05:02:38;;;;;;;13.40;2.60;;;;;;;;;;4960498;28;20126;-57
2022/05/16 05:05:04;;;;;;;6.25;2.78;;;;;;;;;;4958063;28;20055;-57
2022/05/16 05:07:30;;;;;;;11.40;2.83;;;;;;;;;;4949372;29;20401;-57
2022/05/16 05:15:28;;;;;;;7.05;2.60;;;;;;;;;;4961285;28;20576;-57
2022/05/16 05:17:55;;;;;;;8.60;2.88;;;;;;;;;;4968181;28;20106;-57
2022/05/16 05:20:21;;;;;;;8.98;2.65;;;;;;;;;;4948886;28;20122;-57
2022/05/16 05:22:48;;;;;;;12.40;3.10;;;;;;;;;;4948840;28;20400;-57
2022/05/16 05:25:15;;;;;;;6.40;2.28;;;;;;;;;;4949091;28;20051;-56
2022/05/16 05:27:42;;;;;;;6.53;2.40;;;;;;;;;;4948837;28;20122;-57
2022/05/16 05:30:09;;;;;;;7.03;2.70;;;;;;;;;;4952341;28;20043;-57
2022/05/16 05:32:36;;;;;;;12.67;2.90;;;;;;;;;;4964109;28;20049;-57
2022/05/16 05:35:03;;;;;;;46.30;4.60;;;;;;;;;;4966111;28;20042;-56
2022/05/16 05:37:29;;;;;;;10.20;2.63;;;;;;;;;;4965677;28;20133;-57
2022/05/16 05:39:58;;;;;;;8.68;2.50;;;;;;;;;;4966507;28;20043;-57
2022/05/16 05:42:25;;;;;;;5.05;2.20;;;;;;;;;;4965636;28;20294;-57
2022/05/16 05:44:52;;;;;;;7.13;2.58;;;;;;;;;;4965365;28;20050;-57
2022/05/16 05:47:18;;;;;;;5.80;2.25;;;;;;;;;;4963142;28;20373;-56
2022/05/16 05:49:44;;;;;;;5.65;2.72;;;;;;;;;;4965264;28;20058;-55
2022/05/16 05:52:10;;;;;;;8.02;2.45;;;;;;;;;;4964712;28;20527;-57
2022/05/16 05:54:36;;;;;;;6.60;2.40;;;;;;;;;;4963671;28;20046;-57
2022/05/16 05:57:03;;;;;;;9.07;3.08;;;;;;;;;;4955997;28;20058;-57
2022/05/16 05:59:29;;;;;;;13.23;2.67;;;;;;;;;;4968627;28;20663;-57
2022/05/16 06:01:55;;;;;;;7.40;2.35;;;;;;;;;;4964740;28;20062;-57
2022/05/16 06:04:22;;;;;;;9.30;2.55;;;;;;;;;;4962296;28;20198;-56
2022/05/16 06:06:48;;;;;;;7.07;2.30;;;;;;;;;;4966573;28;20090;-57
2022/05/16 06:09:14;;;;;;;5.95;2.75;;;;;;;;;;4961226;28;20039;-56
2022/05/16 06:11:41;;;;;;;7.18;2.28;;;;;;;;;;4954609;28;20039;-56
2022/05/16 06:14:07;;;;;;;12.20;2.67;;;;;;;;;;4962737;28;20038;-57
2022/05/16 06:16:33;;;;;;;22.95;3.38;;;;;;;;;;4953095;28;20102;-57
2022/05/16 06:18:59;;;;;;;11.68;3.47;;;;;;;;;;4959994;28;20051;-57
2022/05/16 06:21:26;;;;;;;7.45;2.50;;;;;;;;;;4953123;28;20050;-57
2022/05/16 06:23:52;;;;;;;11.25;3.08;;;;;;;;;;4955496;28;20181;-57
2022/05/16 06:26:18;;;;;;;6.25;2.20;;;;;;;;;;4964520;28;20053;-57
2022/05/16 06:28:44;;;;;;;7.97;2.97;;;;;;;;;;4960415;28;20124;-57
2022/05/16 06:31:10;;;;;;;8.82;2.75;;;;;;;;;;4964229;28;20055;-57
2022/05/16 06:33:37;;;;;;;9.68;2.50;;;;;;;;;;4953856;28;20503;-57
2022/05/16 06:36:05;;;;;;;5.53;2.42;;;;;;;;;;4951047;28;20456;-57
2022/05/16 06:38:33;;;;;;;13.05;3.08;;;;;;;;;;4962589;28;20147;-57
2022/05/16 06:40:59;;;;;;;12.15;2.92;;;;;;;;;;4947931;28;20500;-57
2022/05/16 06:43:27;;;;;;;9.00;2.83;;;;;;;;;;4961098;28;20146;-56
2022/05/16 06:45:53;;;;;;;10.13;2.65;;;;;;;;;;4961487;28;20050;-56
2022/05/16 06:48:19;;;;;;;8.55;3.08;;;;;;;;;;4958817;28;20045;-56
2022/05/16 06:50:46;;;;;;;10.85;2.72;;;;;;;;;;4964733;28;20035;-57
2022/05/16 06:53:14;;;;;;;13.52;2.80;;;;;;;;;;4964202;28;20039;-57
2022/05/16 06:55:41;;;;;;;10.70;2.83;;;;;;;;;;4960210;28;20105;-56
2022/05/16 06:58:07;;;;;;;8.65;2.47;;;;;;;;;;4951113;28;20043;-56
2022/05/16 07:00:33;;;;;;;9.77;2.75;;;;;;;;;;4947958;28;20079;-56
2022/05/16 07:02:59;;;;;;;13.40;2.85;;;;;;;;;;4947274;28;20139;-56
2022/05/16 07:05:25;;;;;;;9.55;2.30;;;;;;;;;;4949990;28;20137;-57
2022/05/16 07:07:52;;;;;;;11.90;2.42;;;;;;;;;;4956105;28;20098;-57
2022/05/16 07:10:18;;;;;;;7.25;2.88;;;;;;;;;;4963813;28;20054;-57
2022/05/16 07:12:44;;;;;;;9.20;2.55;;;;;;;;;;4958821;28;20122;-57
2022/05/16 07:15:11;;;;;;;11.98;2.33;;;;;;;;;;4950489;28;20035;-57
2022/05/16 07:17:37;;;;;;;8.63;2.88;;;;;;;;;;4950788;28;20643;-57
2022/05/16 07:20:03;;;;;;;13.10;2.67;;;;;;;;;;4947332;28;20042;-57
2022/05/16 07:22:30;;;;;;;8.05;3.25;;;;;;;;;;4947144;28;20050;-57
2022/05/16 07:24:58;;;;;;;11.23;3.05;;;;;;;;;;4949924;28;20043;-57
2022/05/16 07:30:09;;;;;;;13.48;2.88;;;;;;;;;;4961411;28;20042;-57
2022/05/16 07:32:37;;;;;;;11.27;2.80;;;;;;;;;;4947094;28;20051;-57
2022/05/16 07:35:05;;;;;;;10.23;2.75;;;;;;;;;;4960395;28;20102;-57
2022/05/16 07:37:31;;;;;;;7.03;2.35;;;;;;;;;;4958174;28;20398;-57
2022/05/16 07:39:58;;;;;;;9.50;2.50;;;;;;;;;;4953426;28;20469;-57
2022/05/16 07:42:25;;;;;;;5.50;2.30;;;;;;;;;;4946870;28;20102;-58
2022/05/16 07:44:51;;;;;;;11.23;2.17;;;;;;;;;;4952909;28;20130;-57
2022/05/16 07:47:17;;;;;;;9.82;2.60;;;;;;;;;;4963401;28;20109;-57
2022/05/16 07:49:43;;;;;;;8.30;2.47;;;;;;;;;;4963776;28;20047;-57
2022/05/16 07:52:10;;;;;;;7.38;2.53;;;;;;;;;;4963777;28;20045;-57
2022/05/16 07:54:37;;;;;;;15.02;2.70;;;;;;;;;;4957105;28;20055;-57
2022/05/16 07:57:04;;;;;;;9.23;2.70;;;;;;;;;;4957600;28;20051;-57
2022/05/16 07:59:30;;;;;;;8.93;2.47;;;;;;;;;;4947530;28;20069;-57
2022/05/16 08:01:57;;;;;;;7.07;2.40;;;;;;;;;;4963665;28;20043;-57
2022/05/16 08:04:23;;;;;;;10.88;2.60;;;;;;;;;;4962970;28;20097;-57
2022/05/16 08:06:49;;;;;;;12.10;2.75;;;;;;;;;;4963687;28;20047;-57
2022/05/16 08:12:00;;;;;;;12.50;2.50;;;;;;;;;;4946746;28;20043;-57
2022/05/16 08:14:26;;;;;;;9.98;2.38;;;;;;;;;;4953588;28;20035;-57
2022/05/16 08:16:52;;;;;;;9.00;2.70;;;;;;;;;;4956550;28;20050;-58
2022/05/16 08:19:19;;;;;;;12.77;2.20;;;;;;;;;;4952084;28;20051;-57
2022/05/16 08:21:46;;;;;;;6.80;1.90;;;;;;;;;;4965437;28;20058;-57
2022/05/16 08:24:12;;;;;;;11.73;2.63;;;;;;;;;;4959729;28;20051;-57
2022/05/16 08:26:38;;;;;;;11.32;2.40;;;;;;;;;;4949360;28;20054;-57
2022/05/16 08:29:04;;;;;;;13.15;2.95;;;;;;;;;;4952085;28;20055;-57
2022/05/16 08:31:31;;;;;;;8.38;2.33;;;;;;;;;;4965237;28;20510;-57
2022/05/16 08:33:57;;;;;;;10.95;2.60;;;;;;;;;;4959525;28;20047;-57
2022/05/16 08:41:58;;;;;;;9.27;3.08;;;;;;;;;;4965983;28;20359;-57
2022/05/16 08:44:29;;;;;;;14.95;2.67;;;;;;;;;;4966376;28;20038;-57
2022/05/16 08:47:09;;;;;;;8.57;2.40;;;;;;;;;;4954534;28;20663;-58
2022/05/16 08:49:41;;;;;;;11.02;2.58;;;;;;;;;;4958440;28;20500;-57
2022/05/16 08:52:11;;;;;;;8.18;2.70;;;;;;;;;;4966724;28;20809;-57
2022/05/16 08:54:42;;;;;;;9.60;2.50;;;;;;;;;;4953415;28;20043;-57
2022/05/16 08:57:11;;;;;;;9.73;2.40;;;;;;;;;;4949697;28;20054;-57
2022/05/16 08:59:40;;;;;;;10.55;2.63;;;;;;;;;;4950616;28;20047;-57
2022/05/16 09:02:15;;;;;;;7.03;2.40;;;;;;;;;;4956793;28;20401;-57
2022/05/16 09:04:46;;;;;;;6.15;2.33;;;;;;;;;;4948104;28;20126;-58
2022/05/16 09:07:17;;;;;;;14.63;2.40;;;;;;;;;;4949349;28;20075;-57
2022/05/16 09:09:56;;;;;;;14.20;3.25;;;;;;;;;;4962733;28;20792;-57
2022/05/16 09:12:25;;;;;;;12.23;2.60;;;;;;;;;;4964054;28;20485;-57
2022/05/16 09:14:53;;;;;;;8.65;2.67;;;;;;;;;;4949203;28;20576;-57
2022/05/16 09:17:23;;;;;;;7.80;3.28;;;;;;;;;;4949044;28;20374;-57
2022/05/16 09:19:54;;;;;;;11.32;2.97;;;;;;;;;;4949480;28;20043;-57
2022/05/16 09:22:26;;;;;;;11.18;2.65;;;;;;;;;;4957806;28;20121;-57
2022/05/16 09:24:56;;;;;;;15.30;2.97;;;;;;;;;;4965179;28;20055;-58
2022/05/16 09:30:12;;;;;;;10.95;2.78;;;;;;;;;;4962958;28;20039;-58
2022/05/16 09:32:41;;;;;;;11.15;2.72;;;;;;;;;;4959706;28;20101;-58
2022/05/16 09:35:17;;;;;;;16.90;2.83;;;;;;;;;;4965228;28;20096;-58
2022/05/16 09:37:43;;;;;;;9.93;2.45;;;;;;;;;;4956459;28;20046;-57
2022/05/16 09:40:09;;;;;;;7.68;2.67;;;;;;;;;;4948337;28;20138;-58
2022/05/16 09:42:36;;;;;;;16.05;2.72;;;;;;;;;;4953665;28;20071;-58
2022/05/16 09:45:04;;;;;;;11.50;2.85;;;;;;;;;;4949386;28;20047;-57
2022/05/16 09:47:32;;;;;;;8.05;2.47;;;;;;;;;;4948863;28;20136;-57
2022/05/16 09:50:02;;;;;;;7.78;2.30;;;;;;;;;;4948442;28;20039;-57
2022/05/16 09:52:29;;;;;;;11.40;2.63;;;;;;;;;;4952910;28;20059;-57
2022/05/16 09:55:04;;;;;;;21.80;3.10;;;;;;;;;;4947967;28;20057;-57
2022/05/16 09:57:32;;;;;;;14.68;3.22;;;;;;;;;;4951450;28;20138;-57
2022/05/16 10:00:15;;;;;;;9.43;3.03;;;;;;;;;;4963691;28;20070;-57
2022/05/16 10:02:42;;;;;;;7.60;2.50;;;;;;;;;;4955739;28;20486;-58
2022/05/16 10:05:20;;;;;;;14.68;2.60;;;;;;;;;;4948363;28;20680;-57
2022/05/16 10:07:46;;;;;;;;;;;;;;;;;;4949013;28;20055;-58
2022/05/16 10:10:15;;;;;;;8.65;2.67;;;;;;;;;;4952676;28;19961;-58
2022/05/16 10:12:41;;;;;;;9.60;2.80;;;;;;;;;;4953527;28;20082;-58
2022/05/16 10:15:08;;;;;;;17.42;2.67;;;;;;;;;;4948280;28;20035;-58
2022/05/16 10:17:36;;;;;;;11.35;2.85;;;;;;;;;;4948713;28;20589;-58
2022/05/16 10:20:05;;;;;;;12.20;2.42;;;;;;;;;;4954037;28;20051;-58
2022/05/16 10:22:32;;;;;;;9.82;2.80;;;;;;;;;;4953716;28;20093;-58
2022/05/16 10:24:59;;;;;;;10.80;2.38;;;;;;;;;;4947836;28;20039;-58
2022/05/16 10:27:29;;;;;;;8.52;2.75;;;;;;;;;;4947576;28;20448;-58
2022/05/16 10:29:57;;;;;;;6.63;2.35;;;;;;;;;;4961445;28;20485;-57
2022/05/16 10:35:17;;;;;;;49.10;5.53;;;;;;;;;;4955431;28;20046;-57
2022/05/16 10:37:45;;;;;;;37.08;3.40;;;;;;;;;;4964613;28;20035;-57
2022/05/16 10:40:20;;;;;;;11.57;3.05;;;;;;;;;;4953479;28;20045;-57
2022/05/16 10:42:53;;;;;;;13.55;3.10;;;;;;;;;;4954937;28;20489;-57
2022/05/16 10:45:21;;;;;;;8.38;3.05;;;;;;;;;;4964026;28;20070;-57
2022/05/16 10:47:52;;;;;;;9.25;2.53;;;;;;;;;;4955044;28;20053;-58
2022/05/16 10:50:28;;;;;;;10.20;2.78;;;;;;;;;;4957439;28;20493;-57
2022/05/16 10:53:01;;;;;;;11.43;3.40;;;;;;;;;;4953485;28;20101;-57
2022/05/16 10:55:31;;;;;;;9.43;2.88;;;;;;;;;;4960010;28;20097;-57
2022/05/16 10:58:06;;;;;;;12.93;3.05;;;;;;;;;;4959506;28;20047;-57
2022/05/16 11:00:40;;;;;;;16.65;3.72;;;;;;;;;;4959761;28;20047;-57
2022/05/16 11:03:26;;;;;;;17.05;3.15;;;;;;;;;;4950418;28;20035;-57
2022/05/16 11:05:55;;;;;;;12.98;2.83;;;;;;;;;;4959382;28;20050;-57
2022/05/16 11:08:37;;;;;;;13.20;3.60;;;;;;;;;;4962425;28;20052;-56
2022/05/16 11:11:14;;;;;;;20.00;5.15;;;;;;;;;;4959072;28;20472;-56
2022/05/16 11:13:49;;;;;;;18.55;4.28;;;;;;;;;;4948754;28;20215;-56
2022/05/16 11:16:25;;;;;;;27.20;4.20;;;;;;;;;;4947347;28;20086;-57
2022/05/16 11:19:07;;;;;;;17.45;4.15;;;;;;;;;;4947665;28;20044;-56
2022/05/16 11:21:43;;;;;;;14.13;4.22;;;;;;;;;;4950517;28;20047;-57
2022/05/16 11:24:16;;;;;;;11.50;4.18;;;;;;;;;;4962876;28;20128;-56
2022/05/16 11:26:45;;;;;;;11.85;4.20;;;;;;;;;;4948539;28;20055;-56
2022/05/16 11:29:20;;;;;;;24.35;5.13;;;;;;;;;;4954842;28;20035;-56
2022/05/16 11:31:53;;;;;;;17.42;4.72;;;;;;;;;;4962458;28;20042;-56
2022/05/16 11:34:23;;;;;;;27.35;5.88;;;;;;;;;;4957641;28;20038;-57
2022/05/16 11:36:56;;;;;;;20.73;5.15;;;;;;;;;;4961616;28;20035;-57
2022/05/16 11:39:33;;;;;;;23.80;5.60;;;;;;;;;;4947995;28;20050;-57
2022/05/16 11:42:07;;;;;;;27.10;5.53;;;;;;;;;;4947164;28;20140;-57
2022/05/16 11:44:34;;;;;;;23.67;5.38;;;;;;;;;;4947106;28;20051;-57
2022/05/16 11:47:06;;;;;;;28.70;5.88;;;;;;;;;;4952541;28;20058;-57
2022/05/16 11:49:39;;;;;;;24.00;5.70;;;;;;;;;;4949032;28;20047;-57
2022/05/16 11:52:17;;;;;;;15.55;6.00;;;;;;;;;;4967070;28;20113;-57
2022/05/16 11:54:56;;;;;;;21.15;5.47;;;;;;;;;;4967043;28;20047;-57
2022/05/16 12:02:53;;;;;;;19.90;6.28;;;;;;;;;;4967545;28;20463;-57
2022/05/16 12:05:26;;;;;;;10.93;4.47;;;;;;;;;;4962191;28;20110;-57
2022/05/16 12:08:01;;;;;;;14.07;4.97;;;;;;;;;;4966345;28;20497;-57
2022/05/16 12:10:28;;;;;;;15.70;4.10;;;;;;;;;;4964201;28;20098;-56
2022/05/16 12:13:18;;;;;;;10.38;4.00;;;;;;;;;;4966050;28;20065;-56
2022/05/16 12:15:44;;;;;;;8.68;3.30;;;;;;;;;;4967780;28;20129;-57
2022/05/16 12:18:30;;;;;;;11.13;4.10;;;;;;;;;;4966956;28;20082;-57
2022/05/16 12:21:01;;;;;;;8.88;3.03;;;;;;;;;;4950561;28;20055;-57
2022/05/16 12:23:47;;;;;;;10.70;3.17;;;;;;;;;;4954091;28;20047;-57
2022/05/16 12:26:29;;;;;;;9.73;3.05;;;;;;;;;;4949105;28;20043;-57
2022/05/16 12:29:08;;;;;;;7.90;3.00;;;;;;;;;;4961680;28;20039;-57
2022/05/16 12:31:41;;;;;;;8.27;2.95;;;;;;;;;;4959336;28;20039;-56
2022/05/16 12:34:07;;;;;;;7.55;2.97;;;;;;;;;;4950148;28;20040;-57
2022/05/16 12:36:34;;;;;;;10.77;3.17;;;;;;;;;;4951708;28;20097;-56
2022/05/16 12:39:07;;;;;;;7.50;3.35;;;;;;;;;;4963722;28;20496;-56
2022/05/16 12:41:39;;;;;;;12.50;3.45;;;;;;;;;;4967686;28;20064;-57
2022/05/16 12:44:06;;;;;;;11.32;3.10;;;;;;;;;;4966448;28;20136;-57
2022/05/16 12:46:44;;;;;;;8.38;3.53;;;;;;;;;;4965765;28;20516;-57
2022/05/16 12:49:19;;;;;;;9.23;3.20;;;;;;;;;;4966560;28;20039;-57
2022/05/16 12:51:59;;;;;;;12.10;3.15;;;;;;;;;;4967733;28;20105;-57
2022/05/16 12:54:44;;;;;;;6.35;2.60;;;;;;;;;;4962299;28;20113;-56
2022/05/16 12:57:29;;;;;;;10.50;3.00;;;;;;;;;;4963928;28;20101;-57
2022/05/16 13:00:05;;;;;;;58.08;4.97;;;;;;;;;;4949608;28;20046;-57
2022/05/16 13:02:40;;;;;;;9.35;3.33;;;;;;;;;;4948884;28;20054;-57
2022/05/16 13:05:11;;;;;;;7.80;3.13;;;;;;;;;;4962914;28;20062;-57
2022/05/16 13:07:42;;;;;;;6.80;3.03;;;;;;;;;;4967376;28;20092;-57
2022/05/16 13:10:29;;;;;;;9.52;3.53;;;;;;;;;;4949385;28;20055;-57
2022/05/16 13:13:11;;;;;;;7.63;3.33;;;;;;;;;;4959418;28;20688;-57
2022/05/16 13:15:41;;;;;;;8.48;3.75;;;;;;;;;;4965623;28;20082;-58
2022/05/16 13:18:11;;;;;;;10.05;3.60;;;;;;;;;;4967624;28;20035;-57
2022/05/16 13:20:40;;;;;;;5.25;3.05;;;;;;;;;;4966559;28;20043;-57
2022/05/16 13:23:07;;;;;;;9.20;3.60;;;;;;;;;;4967055;28;20039;-58
2022/05/16 13:29:21;;;;;;;11.52;3.17;;;;;;;;;;4965526;28;20043;-57
2022/05/16 13:31:05;;;;;;;23.42;4.93;;;;;;;;;;4967219;28;20150;-58
2022/05/16 13:33:34;;;;;;;8.73;5.25;;;;;;;;;;4967052;28;20047;-57
2022/05/16 13:36:13;;;;;;;16.23;5.53;;;;;;;;;;4951385;28;20039;-57
2022/05/16 13:38:39;;;;;;;10.65;5.25;;;;;;;;;;4948219;28;20115;-57
2022/05/16 13:41:05;;;;;;;11.55;6.30;;;;;;;;;;4948613;28;20050;-57
2022/05/16 13:43:32;;;;;;;7.55;5.03;;;;;;;;;;4950255;28;20813;-57
2022/05/16 13:46:01;;;;;;;15.25;5.90;;;;;;;;;;4954197;28;20138;-56
2022/05/16 13:48:27;;;;;;;15.10;5.88;;;;;;;;;;4948088;28;20043;-56
2022/05/16 13:50:53;;;;;;;15.30;6.13;;;;;;;;;;4948298;28;20101;-56
2022/05/16 13:53:22;;;;;;;13.35;5.50;;;;;;;;;;4966501;28;20496;-56
2022/05/16 13:55:50;;;;;;;13.27;6.20;;;;;;;;;;4959953;28;20039;-57
2022/05/16 13:58:17;;;;;;;11.57;6.38;;;;;;;;;;4959414;28;20070;-58
2022/05/16 14:00:46;;;;;;;12.23;6.80;;;;;;;;;;4959226;28;20039;-58
2022/05/16 14:03:28;;;;;;;13.43;6.13;;;;;;;;;;4948703;28;20054;-58
2022/05/16 14:05:54;;;;;;;10.02;6.55;;;;;;;;;;4963979;28;20130;-58
2022/05/16 14:08:22;;;;;;;18.98;6.38;;;;;;;;;;4967314;28;20058;-57
2022/05/16 14:10:50;;;;;;;15.75;5.68;;;;;;;;;;4960053;28;20047;-58
2022/05/16 14:13:19;;;;;;;13.55;6.97;;;;;;;;;;4958074;28;20054;-59
2022/05/16 14:15:55;;;;;;;14.95;6.07;;;;;;;;;;4954409;28;20122;-59
2022/05/16 14:18:24;;;;;;;15.20;6.10;;;;;;;;;;4948028;28;20710;-60
2022/05/16 14:20:50;;;;;;;16.27;6.28;;;;;;;;;;4948600;28;20043;-60
2022/05/16 14:23:31;;;;;;;10.13;5.93;;;;;;;;;;4951322;28;20042;-60
2022/05/16 14:26:09;;;;;;;11.82;6.88;;;;;;;;;;4948443;28;20046;-60
2022/05/16 14:28:44;;;;;;;13.77;7.80;;;;;;;;;;4958059;28;20161;-60
2022/05/16 14:31:19;;;;;;;17.08;8.07;;;;;;;;;;4951767;28;20106;-60
2022/05/16 14:33:51;;;;;;;22.10;8.50;;;;;;;;;;4960431;28;20122;-60
2022/05/16 14:36:24;;;;;;;17.30;7.82;;;;;;;;;;4959876;28;20101;-60
2022/05/16 14:38:52;;;;;;;17.35;8.50;;;;;;;;;;4960385;28;20457;-60
2022/05/16 14:41:21;;;;;;;32.92;7.53;;;;;;;;;;4958195;28;20034;-59
2022/05/16 14:43:56;;;;;;;18.67;7.95;;;;;;;;;;4962367;28;20500;-59
2022/05/16 14:49:07;;;;;;;16.52;8.68;;;;;;;;;;4957170;28;20556;-60
2022/05/16 14:51:34;;;;;;;15.52;7.47;;;;;;;;;;4951896;28;20049;-59
2022/05/16 14:54:01;;;;;;;15.40;7.03;;;;;;;;;;4960844;28;20105;-59
2022/05/16 14:56:32;;;;;;;17.87;7.13;;;;;;;;;;4962447;28;20066;-59
2022/05/16 14:58:58;;;;;;;20.25;6.85;;;;;;;;;;4966506;28;20035;-59
2022/05/16 15:04:10;;;;;;;12.88;6.93;;;;;;;;;;4962144;28;20053;-59
2022/05/16 15:06:38;;;;;;;20.55;8.45;;;;;;;;;;4946985;28;20059;-59
2022/05/16 15:09:05;;;;;;;24.20;8.60;;;;;;;;;;4951333;28;20051;-58
2022/05/16 15:11:34;;;;;;;21.50;10.07;;;;;;;;;;4951019;28;20070;-59
2022/05/16 15:14:00;;;;;;;27.17;11.18;;;;;;;;;;4956156;28;20306;-59
2022/05/16 15:16:26;;;;;;;20.23;10.05;;;;;;;;;;4957721;28;20055;-59
2022/05/16 15:18:53;;;;;;;27.33;13.68;;;;;;;;;;4963247;28;20050;-59
2022/05/16 15:21:19;;;;;;;29.95;15.32;;;;;;;;;;4962296;28;20051;-59
2022/05/16 15:23:46;;;;;;;26.13;14.98;;;;;;;;;;4962795;28;20270;-58
2022/05/16 15:26:12;;;;;;;31.67;17.50;;;;;;;;;;4961153;28;20051;-58
2022/05/16 15:28:38;;;;;;;33.50;17.25;;;;;;;;;;4962778;28;20137;-58